Pago Pago, AS

8:14 PM SST on March 05, 2015 (GMT -1100)
Kona International At Keahole | Change Station
CLOSE
Current Station
Airport
Location: Keahole Point,
Elevation: 43 ft
Nearby Weather Stations

Elev 43 ft 19.74 °N, 156.05 °W | Updated 21 minutes ago

Scattered Clouds
Scattered Clouds
74 °F
Feels Like 74 °F
N
14
Wind Variable Wind from NE
Gusts 25 mph

Today
High -- | Low -- °F
--% Chance of Precip.
Yesterday
High -- | Low -- °F
Precip. -- in
6:24 AM 6:43 PM
Full, 100% visible
Pressure 29.88 in
Visibility 10.0 miles
Clouds Few 2900 ft
Scattered Clouds 3600 ft
Scattered Clouds 7500 ft
Dew Point 62 °F
Humidity 66%
Rainfall 0.25 in
Snow Depth Not available.
UV 0 out of 12
Pollen Not available.
Air Quality Not available.
Flu Activity Not available.
METAR PHKO 060653Z 04012G22KT 10SM FEW029 SCT036 SCT075 23/17 A2988 RMK AO2 SLP117 T02330167

More Conditions Fewer Conditions

Pressure 29.88 in
Visibility 10.0 miles
Clouds Few 2900 ft
Scattered Clouds 3600 ft
Scattered Clouds 7500 ft
Dew Point 62 °F
Humidity 66%
Rainfall 0.25 in
Snow Depth Not available.
UV 0 out of 12
Pollen Not available.
Air Quality Not available.
Flu Activity Not available.
METAR PHKO 060653Z 04012G22KT 10SM FEW029 SCT036 SCT075 23/17 A2988 RMK AO2 SLP117 T02330167

More Conditions Fewer Conditions

10-Day Weather Forecast

Almanac

Astronomy

Mar. 05, 2015 Rise Set
Actual Time
Civil Twilight
Nautical Twilight
Astronomical Twilight
Moon
Length of Visible Light
Length of Day
Tomorrow will be .
, % of the Moon is Illuminated

Today's Extremes

State Highs State Lows

Community

WunderPhotos

Upload Photos

1,803,199 photos uploaded!

WunderBlogs® & News

Nearby

Air Quality

  Air Quality AQ Index Pollutant
Not available.

Snow Depth

Station Depth Elevation

Earthquake Activity

City Distance Mag. Time & Date
Minimum magnitude displayed is 2.5.

Coastal Water Temperatures

Place Temperature

Nearby Weather Stations